Time;durP1;ratioP1;P1;durP2;ratioP2;P2;SDS_P1;SDS_P2;PMS_P1;PMS_P2;Temp;Humidity;BMP_temperature;BMP_pressure;BME280_temperature;BME280_humidity;BME280_pressure;Samples;Min_cycle;Max_cycle;Signal;HPM_P1;HPM_P2
2022/07/01 00:00:34;;;;;;;20.17;17.93;;;20.60;99.90;;;;;;5068275;28;20226;-52
2022/07/01 00:03:00;;;;;;;19.53;17.53;;;20.50;99.90;;;;;;5068908;28;20424;-55
2022/07/01 00:05:25;;;;;;;20.00;18.00;;;20.50;99.90;;;;;;5066098;28;20239;-55
2022/07/01 00:07:51;;;;;;;22.83;18.30;;;20.50;99.90;;;;;;5059095;28;20680;-54
2022/07/01 00:10:17;;;;;;;28.23;18.63;;;20.40;99.90;;;;;;5068619;28;20541;-55
2022/07/01 00:12:43;;;;;;;20.50;18.50;;;20.40;99.90;;;;;;5068051;28;20961;-53
2022/07/01 00:15:09;;;;;;;20.53;18.33;;;20.40;99.90;;;;;;5068091;28;20284;-52
2022/07/01 00:17:35;;;;;;;19.30;17.40;;;20.40;99.90;;;;;;5068949;28;20177;-49
2022/07/01 00:20:02;;;;;;;20.60;18.60;;;20.40;99.90;;;;;;5067379;28;20432;-53
2022/07/01 00:22:28;;;;;;;21.13;19.10;;;20.30;99.90;;;;;;5069014;28;20185;-53
2022/07/01 00:24:54;;;;;;;20.87;18.77;;;20.30;99.90;;;;;;5068151;28;20530;-55
2022/07/01 00:27:20;;;;;;;20.13;18.13;;;20.30;99.90;;;;;;5049767;28;20216;-52
2022/07/01 00:29:46;;;;;;;20.80;18.60;;;20.20;99.90;;;;;;5051713;28;20440;-54
2022/07/01 00:32:12;;;;;;;21.43;16.97;;;20.30;99.90;;;;;;5063881;28;20192;-52
2022/07/01 00:34:37;;;;;;;21.70;17.60;;;20.20;99.90;;;;;;5067585;28;20189;-56
2022/07/01 00:37:03;;;;;;;20.60;18.60;;;20.20;99.90;;;;;;5071879;28;20190;-52
2022/07/01 00:39:31;;;;;;;20.00;18.10;;;20.20;99.90;;;;;;5071613;28;20178;-49
2022/07/01 00:42:00;;;;;;;20.97;18.73;;;20.20;99.90;;;;;;5072174;28;20175;-54
2022/07/01 00:44:27;;;;;;;20.17;17.83;;;20.20;99.90;;;;;;5064747;28;20423;-49
2022/07/01 00:46:53;;;;;;;21.70;19.50;;;20.20;99.90;;;;;;5072095;28;20485;-52
2022/07/01 00:49:19;;;;;;;20.97;18.87;;;20.20;99.90;;;;;;5071054;28;20426;-52
2022/07/01 00:51:45;;;;;;;21.47;19.47;;;20.10;99.90;;;;;;5072098;28;20412;-51
2022/07/01 00:54:12;;;;;;;20.90;18.87;;;20.00;99.90;;;;;;5071900;28;20433;-55
2022/07/01 00:56:38;;;;;;;20.53;18.47;;;20.10;99.90;;;;;;5071174;28;20481;-49
2022/07/01 00:59:03;;;;;;;21.33;19.33;;;20.00;99.90;;;;;;5071843;28;20843;-48
2022/07/01 01:01:29;;;;;;;20.73;18.60;;;20.00;99.90;;;;;;5071908;28;20455;-53
2022/07/01 01:03:55;;;;;;;21.00;18.83;;;19.90;99.90;;;;;;5071875;28;20186;-50
2022/07/01 01:06:21;;;;;;;20.07;18.07;;;19.90;99.90;;;;;;5062684;28;20664;-52
2022/07/01 01:08:48;;;;;;;20.27;18.37;;;19.90;99.90;;;;;;5071793;28;20544;-53
2022/07/01 01:11:15;;;;;;;21.00;18.40;;;19.90;99.90;;;;;;5071686;28;20427;-50
2022/07/01 01:13:41;;;;;;;20.97;18.87;;;19.90;99.90;;;;;;5071777;28;20422;-52
2022/07/01 01:16:07;;;;;;;20.10;18.20;;;19.80;99.90;;;;;;5071112;28;20428;-51
2022/07/01 01:18:33;;;;;;;20.63;18.43;;;19.80;99.90;;;;;;5071867;28;20194;-53
2022/07/01 01:20:59;;;;;;;19.90;17.90;;;19.80;99.90;;;;;;5070519;28;20170;-54
2022/07/01 01:23:24;;;;;;;19.90;18.00;;;19.80;99.90;;;;;;5071404;28;20923;-51
2022/07/01 01:25:50;;;;;;;20.20;18.30;;;19.80;99.90;;;;;;5053643;28;20190;-52
2022/07/01 01:28:16;;;;;;;19.67;17.57;;;19.80;99.90;;;;;;5071345;28;20214;-54
2022/07/01 01:30:42;;;;;;;21.20;18.90;;;19.80;99.90;;;;;;5071347;28;20185;-51
2022/07/01 01:33:11;;;;;;;21.33;19.23;;;19.70;99.90;;;;;;5069526;28;20285;-53
2022/07/01 01:35:37;;;;;;;20.27;18.17;;;19.70;99.90;;;;;;5071152;28;20550;-55
2022/07/01 01:38:03;;;;;;;23.40;19.60;;;19.60;99.90;;;;;;5070689;28;20411;-54
2022/07/01 01:40:28;;;;;;;20.53;18.63;;;19.60;99.90;;;;;;5071281;28;20531;-53
2022/07/01 01:42:54;;;;;;;20.80;18.10;;;19.50;99.90;;;;;;5069951;28;20190;-52
2022/07/01 01:45:20;;;;;;;21.70;18.83;;;19.60;99.90;;;;;;5071406;28;20551;-52
2022/07/01 01:47:45;;;;;;;21.90;19.10;;;19.70;99.90;;;;;;5071048;28;20197;-54
2022/07/01 01:50:14;;;;;;;20.60;18.50;;;19.60;99.90;;;;;;5071020;28;20657;-50
2022/07/01 01:52:42;;;;;;;20.13;18.17;;;19.60;99.90;;;;;;5070285;28;20169;-51
2022/07/01 01:55:09;;;;;;;21.70;19.30;;;19.60;99.90;;;;;;5052862;28;20431;-53
2022/07/01 01:57:34;;;;;;;21.10;18.90;;;19.60;99.90;;;;;;5067571;28;21036;-54
2022/07/01 02:00:00;;;;;;;20.80;18.70;;;19.50;99.90;;;;;;5070975;28;20473;-52
2022/07/01 02:02:26;;;;;;;20.73;18.73;;;19.50;99.90;;;;;;5070920;28;20181;-54
2022/07/01 02:04:52;;;;;;;19.43;17.53;;;19.50;99.90;;;;;;5069729;28;20455;-53
2022/07/01 02:07:18;;;;;;;19.40;17.30;;;19.50;99.90;;;;;;5063840;28;20965;-53
2022/07/01 02:09:43;;;;;;;20.30;18.37;;;19.40;99.90;;;;;;5065856;28;20598;-51
2022/07/01 02:12:09;;;;;;;24.93;18.43;;;19.40;99.90;;;;;;5070470;28;20192;-50
2022/07/01 02:14:35;;;;;;;20.40;18.20;;;19.30;99.90;;;;;;5051023;28;20196;-53
2022/07/01 02:17:00;;;;;;;20.60;18.63;;;19.30;99.90;;;;;;5067485;28;20212;-54
2022/07/01 02:19:26;;;;;;;21.20;18.90;;;19.30;99.90;;;;;;5069806;28;20193;-51
2022/07/01 02:21:52;;;;;;;21.23;19.03;;;19.30;99.90;;;;;;5070159;28;20184;-54
2022/07/01 02:24:18;;;;;;;21.63;19.40;;;19.30;99.90;;;;;;5051947;28;20963;-50
2022/07/01 02:26:44;;;;;;;21.07;19.03;;;19.30;99.90;;;;;;5070407;28;20189;-54
2022/07/01 02:29:10;;;;;;;21.60;19.40;;;19.30;99.90;;;;;;5070064;28;20451;-55
2022/07/01 02:31:35;;;;;;;20.27;18.37;;;19.30;99.90;;;;;;5067513;28;20948;-48
2022/07/01 02:34:01;;;;;;;20.20;18.03;;;19.30;99.90;;;;;;5069487;28;20730;-52
2022/07/01 02:36:27;;;;;;;22.43;20.07;;;19.30;99.90;;;;;;5069723;28;20220;-51
2022/07/01 02:38:52;;;;;;;22.70;18.57;;;19.40;99.90;;;;;;5070282;28;20204;-48
2022/07/01 02:41:18;;;;;;;21.07;18.83;;;19.30;99.90;;;;;;5069831;28;20182;-52
2022/07/01 02:43:43;;;;;;;19.90;17.90;;;19.30;99.90;;;;;;5068065;28;20215;-52
2022/07/01 02:46:09;;;;;;;20.77;18.57;;;19.20;99.90;;;;;;5071002;28;20636;-49
2022/07/01 02:48:35;;;;;;;19.77;17.67;;;19.20;99.90;;;;;;5069492;28;20208;-51
2022/07/01 02:51:01;;;;;;;20.80;18.70;;;19.10;99.90;;;;;;5069885;28;20192;-52
2022/07/01 02:53:26;;;;;;;20.93;18.73;;;19.10;99.90;;;;;;5068246;28;20498;-52
2022/07/01 02:55:52;;;;;;;20.47;17.87;;;19.10;99.90;;;;;;5069733;28;20185;-54
2022/07/01 02:58:17;;;;;;;21.43;18.40;;;19.10;99.90;;;;;;5069640;28;20200;-50
2022/07/01 03:00:43;;;;;;;21.87;19.57;;;19.10;99.90;;;;;;5069134;28;20198;-55
2022/07/01 03:03:08;;;;;;;20.30;17.97;;;19.10;99.90;;;;;;5051832;28;20200;-49
2022/07/01 03:05:34;;;;;;;19.87;17.67;;;19.10;99.90;;;;;;5069609;28;20221;-50
2022/07/01 03:08:00;;;;;;;20.80;18.60;;;19.10;99.90;;;;;;5069336;28;20640;-53
2022/07/01 03:10:26;;;;;;;21.13;18.30;;;19.10;99.90;;;;;;5068547;28;20569;-53
2022/07/01 03:12:52;;;;;;;22.53;19.10;;;19.10;99.90;;;;;;5069439;28;20177;-51
2022/07/01 03:15:17;;;;;;;23.73;18.97;;;19.10;99.90;;;;;;5069364;28;20803;-52
2022/07/01 03:17:45;;;;;;;20.70;18.63;;;19.10;99.90;;;;;;5069508;28;20186;-53
2022/07/01 03:20:16;;;;;;;21.77;19.57;;;19.10;99.90;;;;;;5068729;28;20190;-50
2022/07/01 03:22:43;;;;;;;19.90;18.00;;;19.10;99.90;;;;;;5069415;28;20957;-53
2022/07/01 03:25:09;;;;;;;20.27;18.37;;;19.10;99.90;;;;;;5068973;28;20455;-51
2022/07/01 03:27:35;;;;;;;20.80;18.30;;;19.10;99.90;;;;;;5069007;28;20495;-54
2022/07/01 03:30:02;;;;;;;20.93;18.70;;;19.10;99.90;;;;;;5068533;28;20260;-49
2022/07/01 03:32:28;;;;;;;21.80;18.53;;;19.10;99.90;;;;;;5066930;28;20423;-51
2022/07/01 03:34:54;;;;;;;20.07;18.07;;;19.20;99.90;;;;;;5068569;28;20423;-52
2022/07/01 03:37:21;;;;;;;20.37;18.27;;;19.20;99.90;;;;;;5068976;28;20185;-54
2022/07/01 03:39:47;;;;;;;21.63;19.43;;;19.10;99.90;;;;;;5068969;28;20470;-55
2022/07/01 03:42:13;;;;;;;23.93;18.90;;;19.20;99.90;;;;;;5068417;28;20435;-50
2022/07/01 03:44:39;;;;;;;20.70;18.50;;;19.20;99.90;;;;;;5069163;28;20533;-50
2022/07/01 03:47:05;;;;;;;19.90;17.80;;;19.20;99.90;;;;;;5068370;28;20750;-51
2022/07/01 03:49:32;;;;;;;21.40;19.23;;;19.20;99.90;;;;;;5051058;28;20432;-52
2022/07/01 03:51:58;;;;;;;22.60;19.13;;;19.30;99.90;;;;;;5068236;28;20511;-51
2022/07/01 03:54:29;;;;;;;21.40;19.20;;;19.20;99.90;;;;;;5068879;28;20526;-48
2022/07/01 03:57:13;;;;;;;22.57;20.30;;;19.20;99.90;;;;;;5068496;28;20224;-49
2022/07/01 03:59:40;;;;;;;21.63;19.60;;;19.30;99.90;;;;;;5068761;28;20486;-48
2022/07/01 04:02:06;;;;;;;20.37;18.30;;;19.30;99.90;;;;;;5067251;28;20447;-50
2022/07/01 04:04:33;;;;;;;21.43;19.20;;;19.30;99.90;;;;;;5070255;28;20427;-49
2022/07/01 04:07:00;;;;;;;21.00;18.10;;;19.30;99.90;;;;;;5064183;28;20514;-52
2022/07/01 04:09:26;;;;;;;20.17;17.83;;;19.50;99.90;;;;;;5065924;28;20461;-55
2022/07/01 04:11:53;;;;;;;22.47;18.60;;;19.50;99.90;;;;;;5072958;28;20408;-51
2022/07/01 04:14:19;;;;;;;19.73;17.60;;;19.60;99.90;;;;;;5073100;28;20481;-52
2022/07/01 04:16:45;;;;;;;19.13;17.23;;;19.70;99.90;;;;;;5071454;28;20928;-52
2022/07/01 04:19:13;;;;;;;19.17;17.23;;;19.80;99.90;;;;;;5073015;28;20494;-49
2022/07/01 04:24:24;;;;;;;18.20;16.47;;;20.00;99.90;;;;;;5045211;28;20504;-55
2022/07/01 04:26:50;;;;;;;17.93;16.13;;;20.30;99.90;;;;;;5034841;28;20416;-50
2022/07/01 04:29:15;;;;;;;16.70;15.10;;;20.50;99.90;;;;;;5053234;28;20484;-53
2022/07/01 04:31:41;;;;;;;18.07;16.27;;;20.60;99.90;;;;;;5058440;28;20446;-52
2022/07/01 04:34:08;;;;;;;17.13;15.43;;;20.70;99.90;;;;;;5072614;28;20179;-52
2022/07/01 04:36:35;;;;;;;18.53;15.73;;;21.00;99.90;;;;;;5072636;28;20409;-53
2022/07/01 04:39:01;;;;;;;16.10;14.60;;;21.10;99.90;;;;;;5072458;28;20417;-53
2022/07/01 04:44:11;;;;;;;15.30;13.90;;;21.60;99.90;;;;;;5072899;28;20502;-51
2022/07/01 04:46:37;;;;;;;15.00;13.60;;;21.80;99.90;;;;;;5071765;28;20867;-54
2022/07/01 04:49:02;;;;;;;15.40;13.90;;;22.00;99.90;;;;;;5072534;28;20168;-49
2022/07/01 04:51:28;;;;;;;16.20;14.60;;;22.10;99.90;;;;;;5072345;28;20180;-51
2022/07/01 04:53:54;;;;;;;15.33;13.90;;;22.00;99.90;;;;;;5070789;28;20284;-53
2022/07/01 04:56:19;;;;;;;15.83;14.10;;;22.00;99.90;;;;;;5072304;28;20842;-51
2022/07/01 04:58:45;;;;;;;16.13;14.63;;;22.00;99.90;;;;;;5050392;28;21098;-49
2022/07/01 05:01:11;;;;;;;15.40;13.90;;;21.90;99.90;;;;;;5069404;28;20173;-51
2022/07/01 05:03:37;;;;;;;15.87;14.40;;;21.90;99.90;;;;;;5068916;28;20272;-52
2022/07/01 05:06:03;;;;;;;16.40;14.80;;;21.90;99.90;;;;;;5062899;28;20312;-51
2022/07/01 05:08:28;;;;;;;15.93;14.40;;;21.90;99.90;;;;;;5068393;28;20578;-52
2022/07/01 05:10:54;;;;;;;15.17;13.80;;;21.90;99.90;;;;;;5051748;28;20185;-52
2022/07/01 05:13:19;;;;;;;16.67;14.97;;;21.90;99.90;;;;;;5052489;28;20184;-50
2022/07/01 05:15:45;;;;;;;15.73;14.33;;;21.90;99.90;;;;;;5069668;28;20178;-51
2022/07/01 05:23:39;;;;;;;15.80;14.50;;;22.20;99.90;;;;;;5064282;28;20455;-50
2022/07/01 05:26:05;;;;;;;15.37;13.77;;;22.30;99.90;;;;;;5065500;28;20436;-57
2022/07/01 05:28:31;;;;;;;15.80;14.40;;;22.40;99.90;;;;;;5064070;28;20204;-55
2022/07/01 05:30:57;;;;;;;15.40;13.90;;;22.50;99.90;;;;;;5067867;28;20508;-54
2022/07/01 05:33:26;;;;;;;14.60;13.10;;;22.60;99.90;;;;;;5051737;28;20173;-50
2022/07/01 05:35:54;;;;;;;14.30;13.03;;;22.70;99.90;;;;;;5067375;28;20189;-54
2022/07/01 05:38:20;;;;;;;14.73;12.80;;;22.80;99.90;;;;;;5065749;28;20501;-52
2022/07/01 05:40:46;;;;;;;14.90;12.73;;;23.20;99.90;;;;;;5066399;28;20449;-53
2022/07/01 05:43:11;;;;;;;13.83;12.37;;;23.40;99.90;;;;;;5064260;28;20429;-52
2022/07/01 05:45:37;;;;;;;13.03;11.93;;;23.50;99.90;;;;;;5069334;28;20269;-50
2022/07/01 05:48:03;;;;;;;12.47;11.23;;;23.80;99.90;;;;;;5068117;28;20208;-49
2022/07/01 05:50:29;;;;;;;15.17;12.57;;;23.90;99.90;;;;;;5050600;28;20181;-52
2022/07/01 05:52:54;;;;;;;13.03;11.93;;;23.90;99.90;;;;;;5066443;28;20628;-53
2022/07/01 05:55:20;;;;;;;13.43;12.33;;;24.00;99.90;;;;;;5069480;28;20182;-52
2022/07/01 05:57:45;;;;;;;14.53;13.30;;;24.00;99.90;;;;;;5068801;28;20181;-49
2022/07/01 06:00:12;;;;;;;14.73;13.33;;;23.90;99.90;;;;;;5018531;28;1125963;-52
2022/07/01 06:02:37;;;;;;;14.67;12.70;;;24.10;99.90;;;;;;5058786;28;20166;-49
2022/07/01 06:05:04;;;;;;;13.50;12.50;;;24.10;99.90;;;;;;5055438;28;20508;-47
2022/07/01 06:07:29;;;;;;;13.97;12.83;;;24.10;99.90;;;;;;5048900;28;20210;-50
2022/07/01 06:09:56;;;;;;;14.57;13.20;;;24.20;99.90;;;;;;5050853;28;20410;-54
2022/07/01 06:12:22;;;;;;;15.70;14.40;;;24.40;99.90;;;;;;5053671;28;20182;-51
2022/07/01 06:14:47;;;;;;;15.83;14.47;;;24.60;99.90;;;;;;5055152;28;20453;-52
2022/07/01 06:17:13;;;;;;;14.40;13.23;;;24.80;99.90;;;;;;5052644;28;20229;-51
2022/07/01 06:19:39;;;;;;;17.30;15.90;;;24.90;99.90;;;;;;5056878;28;20639;-53
2022/07/01 06:22:05;;;;;;;16.23;14.87;;;24.80;99.90;;;;;;5061307;28;20206;-56
2022/07/01 06:24:31;;;;;;;17.27;15.70;;;24.70;99.90;;;;;;5058080;28;20448;-49
2022/07/01 06:26:57;;;;;;;18.47;16.87;;;24.70;99.90;;;;;;5058579;28;21111;-51
2022/07/01 06:29:23;;;;;;;18.40;16.70;;;24.50;99.90;;;;;;5056019;28;20244;-51
2022/07/01 06:31:49;;;;;;;17.80;16.20;;;24.60;99.90;;;;;;5058158;28;20412;-50
2022/07/01 06:34:15;;;;;;;17.50;16.03;;;24.50;99.90;;;;;;5059104;28;20544;-53
2022/07/01 06:36:40;;;;;;;17.97;16.47;;;24.50;99.90;;;;;;5058905;28;20186;-53
2022/07/01 06:39:06;;;;;;;16.63;15.23;;;24.50;99.90;;;;;;5063731;28;20189;-53
2022/07/01 06:41:32;;;;;;;15.83;14.50;;;24.60;99.90;;;;;;5052008;28;20648;-54
2022/07/01 06:43:59;;;;;;;16.97;15.50;;;24.60;99.90;;;;;;5057903;28;20865;-49
2022/07/01 06:46:26;;;;;;;15.53;14.20;;;24.70;99.90;;;;;;5052286;28;20196;-52
2022/07/01 06:48:52;;;;;;;15.23;13.93;;;24.90;99.90;;;;;;5057459;28;20467;-49
2022/07/01 06:51:18;;;;;;;15.60;14.40;;;24.90;99.90;;;;;;5038592;28;20436;-52
2022/07/01 06:53:46;;;;;;;16.37;15.07;;;25.00;99.90;;;;;;5040161;28;20192;-50
2022/07/01 06:56:12;;;;;;;16.77;15.47;;;24.80;99.90;;;;;;5054603;28;20421;-49
2022/07/01 06:58:38;;;;;;;16.73;15.47;;;24.90;99.90;;;;;;5065499;28;20549;-53
2022/07/01 07:01:04;;;;;;;17.80;16.10;;;25.10;99.90;;;;;;5047131;28;20450;-53
2022/07/01 07:03:32;;;;;;;18.10;16.60;;;25.30;99.90;;;;;;5040412;28;20412;-51
2022/07/01 07:06:00;;;;;;;18.50;16.90;;;25.40;99.90;;;;;;5039216;28;20211;-52
2022/07/01 07:08:26;;;;;;;18.17;16.77;;;25.50;99.90;;;;;;5042704;28;20979;-52
2022/07/01 07:10:52;;;;;;;17.50;15.90;;;25.50;99.90;;;;;;5039570;28;20442;-51
2022/07/01 07:13:18;;;;;;;17.83;16.50;;;25.50;99.90;;;;;;5036195;28;20427;-51
2022/07/01 07:15:43;;;;;;;20.47;18.80;;;25.40;99.90;;;;;;5032409;28;20219;-51
2022/07/01 07:18:09;;;;;;;19.93;18.20;;;25.40;99.90;;;;;;5040723;28;20229;-50
2022/07/01 07:20:35;;;;;;;20.20;18.30;;;25.10;99.90;;;;;;5033885;28;20186;-54
2022/07/01 07:23:01;;;;;;;21.60;19.70;;;24.90;99.90;;;;;;5035606;28;20463;-53
2022/07/01 07:25:27;;;;;;;23.23;20.90;;;24.60;99.90;;;;;;5039576;28;20183;-49
2022/07/01 07:27:53;;;;;;;22.43;20.57;;;24.50;99.90;;;;;;5051180;28;20202;-48
2022/07/01 07:30:18;;;;;;;23.10;20.80;;;24.50;99.90;;;;;;5049131;28;20907;-48
2022/07/01 07:32:44;;;;;;;21.20;19.40;;;24.40;99.90;;;;;;5044561;28;20589;-50
2022/07/01 07:35:10;;;;;;;20.07;18.37;;;24.40;99.90;;;;;;5041804;28;20223;-52
2022/07/01 07:37:36;;;;;;;22.47;20.30;;;24.40;99.90;;;;;;5039230;28;20186;-50
2022/07/01 07:40:03;;;;;;;21.17;19.17;;;24.40;99.90;;;;;;5038248;28;20759;-52
2022/07/01 07:42:29;;;;;;;20.70;18.80;;;24.30;99.90;;;;;;5039706;28;20179;-49
2022/07/01 07:44:55;;;;;;;19.63;18.03;;;24.20;99.90;;;;;;5038882;28;20427;-52
2022/07/01 07:47:20;;;;;;;21.43;19.43;;;24.00;99.90;;;;;;5036129;28;20205;-50
2022/07/01 07:49:46;;;;;;;20.90;18.90;;;23.70;99.90;;;;;;5038533;28;20192;-48
2022/07/01 07:52:12;;;;;;;22.03;20.20;;;23.50;99.90;;;;;;5035849;28;20182;-51
2022/07/01 07:54:38;;;;;;;21.73;19.93;;;23.40;99.90;;;;;;5038459;28;20185;-50
2022/07/01 07:57:05;;;;;;;21.13;19.03;;;23.40;99.90;;;;;;5038216;28;20428;-48
2022/07/01 07:59:30;;;;;;;22.87;20.87;;;23.30;99.90;;;;;;5051617;28;20252;-51
2022/07/01 08:01:56;;;;;;;21.87;19.90;;;23.40;99.90;;;;;;5067162;28;20443;-49
2022/07/01 08:04:22;;;;;;;21.50;19.60;;;23.40;99.90;;;;;;5067963;28;20571;-52
2022/07/01 08:06:48;;;;;;;21.57;19.47;;;23.30;99.90;;;;;;5068713;28;20818;-53
2022/07/01 08:09:13;;;;;;;21.57;19.57;;;23.30;99.90;;;;;;5066053;28;20834;-54
2022/07/01 08:11:39;;;;;;;20.37;18.47;;;23.30;99.90;;;;;;5049303;28;20953;-50
2022/07/01 08:14:05;;;;;;;19.87;17.97;;;23.30;99.90;;;;;;5067586;28;20240;-50
2022/07/01 08:16:31;;;;;;;20.40;18.50;;;23.40;99.90;;;;;;5066825;28;20651;-54
2022/07/01 08:18:56;;;;;;;20.23;18.23;;;23.40;99.90;;;;;;5066205;28;20294;-51
2022/07/01 08:21:22;;;;;;;19.40;17.80;;;23.40;99.90;;;;;;5067213;28;20427;-50
2022/07/01 08:23:48;;;;;;;18.10;16.47;;;23.50;99.90;;;;;;5067955;28;20185;-49
2022/07/01 08:26:15;;;;;;;18.87;17.07;;;23.50;99.90;;;;;;5068477;28;20193;-53
2022/07/01 08:28:41;;;;;;;19.40;17.50;;;23.40;99.90;;;;;;5067299;28;20209;-52
2022/07/01 08:31:07;;;;;;;21.03;18.93;;;23.10;99.90;;;;;;5068212;28;20416;-51
2022/07/01 08:33:32;;;;;;;20.50;18.60;;;22.80;99.90;;;;;;5061351;28;20497;-55
2022/07/01 08:35:58;;;;;;;20.27;18.27;;;22.90;99.90;;;;;;5067307;28;20420;-53
2022/07/01 08:38:24;;;;;;;20.30;18.30;;;22.80;99.90;;;;;;5066443;28;20184;-52
2022/07/01 08:40:49;;;;;;;19.07;17.27;;;22.80;99.90;;;;;;5062744;28;20191;-50
2022/07/01 08:43:15;;;;;;;17.77;16.17;;;22.70;99.90;;;;;;5067320;28;20190;-52
2022/07/01 08:45:42;;;;;;;18.03;16.40;;;22.90;99.90;;;;;;5065755;28;20525;-53
2022/07/01 08:48:07;;;;;;;17.07;15.50;;;23.00;99.90;;;;;;5066741;28;20529;-50
2022/07/01 08:50:38;;;;;;;17.80;16.00;;;23.10;99.90;;;;;;5068263;28;20464;-51
2022/07/01 08:53:05;;;;;;;18.53;16.60;;;23.40;99.90;;;;;;5069709;28;20260;-52
2022/07/01 08:55:32;;;;;;;17.30;15.80;;;23.60;99.90;;;;;;5069592;28;20423;-51
2022/07/01 08:57:58;;;;;;;16.40;15.00;;;23.70;99.90;;;;;;5061663;28;20427;-51
2022/07/01 09:00:33;;;;;;;17.13;15.57;;;23.90;99.90;;;;;;5070907;28;20470;-54
2022/07/01 09:03:01;;;;;;;16.60;15.00;;;24.20;99.90;;;;;;5069081;28;20874;-52
2022/07/01 09:05:28;;;;;;;18.00;16.37;;;24.20;99.90;;;;;;5069686;28;20447;-54
2022/07/01 09:08:00;;;;;;;17.33;15.83;;;24.20;99.90;;;;;;5069269;28;20487;-55
2022/07/01 09:10:27;;;;;;;16.27;14.77;;;24.10;99.90;;;;;;5068265;28;20412;-50
2022/07/01 09:12:52;;;;;;;18.97;15.77;;;23.70;99.90;;;;;;5068449;28;20415;-55
2022/07/01 09:15:20;;;;;;;18.00;16.40;;;23.30;99.90;;;;;;5067124;28;20427;-53
2022/07/01 09:17:46;;;;;;;17.70;16.00;;;22.90;99.90;;;;;;5069502;28;20184;-55
2022/07/01 09:20:32;;;;;;;18.00;16.30;;;22.60;99.90;;;;;;5068723;28;20905;-50
2022/07/01 09:23:03;;;;;;;18.97;17.27;;;22.40;99.90;;;;;;5065243;28;20694;-54
2022/07/01 09:25:37;;;;;;;18.87;17.03;;;22.20;99.90;;;;;;5069183;28;20482;-55
2022/07/01 09:28:07;;;;;;;18.03;16.20;;;22.10;99.90;;;;;;5067631;28;20461;-51
2022/07/01 09:30:33;;;;;;;19.17;17.27;;;22.00;99.90;;;;;;5067222;28;20642;-50
2022/07/01 09:33:10;;;;;;;17.40;15.70;;;21.80;99.90;;;;;;5067532;28;20418;-53
2022/07/01 09:35:36;;;;;;;18.53;16.63;;;21.70;99.90;;;;;;5068519;28;20943;-53
2022/07/01 09:38:03;;;;;;;17.00;15.30;;;21.50;99.90;;;;;;5069416;28;20906;-52
2022/07/01 09:40:54;;;;;;;20.63;17.90;;;21.40;99.90;;;;;;5068372;28;20793;-52
2022/07/01 09:43:21;;;;;;;19.60;17.70;;;21.30;99.90;;;;;;5067577;28;20429;-51
2022/07/01 09:45:56;;;;;;;19.07;17.30;;;21.10;99.90;;;;;;5067796;28;20507;-52
2022/07/01 09:48:25;;;;;;;20.13;18.23;;;21.00;99.90;;;;;;5067270;28;20444;-55
2022/07/01 09:50:51;;;;;;;20.30;18.27;;;21.00;99.90;;;;;;5068229;28;20413;-50
2022/07/01 09:53:17;;;;;;;18.50;16.63;;;21.00;99.90;;;;;;5068036;28;20501;-56
2022/07/01 09:55:43;;;;;;;17.07;15.27;;;20.80;99.90;;;;;;5068131;28;20533;-53
2022/07/01 09:58:09;;;;;;;19.00;16.70;;;20.80;99.90;;;;;;5065274;28;20206;-55
2022/07/01 10:00:36;;;;;;;16.90;15.10;;;20.70;99.90;;;;;;5068167;28;20234;-54
2022/07/01 10:03:05;;;;;;;16.03;14.33;;;20.50;99.90;;;;;;5067165;28;20446;-53
2022/07/01 10:05:36;;;;;;;16.87;15.20;;;20.50;99.90;;;;;;5066997;28;20494;-55
2022/07/01 10:08:43;;;;;;;17.17;15.47;;;20.40;99.90;;;;;;5068294;28;20933;-53
2022/07/01 10:11:35;;;;;;;17.17;15.47;;;20.40;99.90;;;;;;5061249;28;20423;-49
2022/07/01 10:14:04;;;;;;;17.43;15.63;;;20.40;99.90;;;;;;5068063;28;20408;-50
2022/07/01 10:16:32;;;;;;;18.67;16.67;;;20.40;99.90;;;;;;5068146;28;20404;-53
2022/07/01 10:18:58;;;;;;;17.30;15.50;;;20.40;99.90;;;;;;5068000;28;20423;-50
2022/07/01 10:21:28;;;;;;;17.10;15.60;;;20.60;99.90;;;;;;5067759;28;21084;-53
2022/07/01 10:24:12;;;;;;;18.03;16.33;;;20.60;99.90;;;;;;5067692;28;20177;-49
2022/07/01 10:26:38;;;;;;;18.20;16.40;;;20.60;99.90;;;;;;5069312;28;20816;-49
2022/07/01 10:29:03;;;;;;;18.07;16.13;;;20.70;99.90;;;;;;5067081;28;20467;-49
2022/07/01 10:31:38;;;;;;;18.07;16.57;;;20.70;99.90;;;;;;5067139;28;20181;-53
2022/07/01 10:34:04;;;;;;;17.03;15.53;;;20.70;99.90;;;;;;5065695;28;20177;-52
2022/07/01 10:36:35;;;;;;;16.90;15.30;;;20.70;99.90;;;;;;5066540;28;20479;-52
2022/07/01 10:39:01;;;;;;;16.53;14.93;;;20.80;99.90;;;;;;5067904;28;20486;-50
2022/07/01 10:41:29;;;;;;;16.87;15.37;;;21.00;99.90;;;;;;5067956;28;20447;-52
2022/07/01 10:43:55;;;;;;;15.83;14.37;;;21.10;99.90;;;;;;5064165;28;20199;-51
2022/07/01 10:46:46;;;;;;;15.83;14.53;;;21.20;99.90;;;;;;5047926;28;20453;-49
2022/07/01 10:49:20;;;;;;;15.20;13.80;;;21.30;99.90;;;;;;5069300;28;20460;-53
2022/07/01 10:51:50;;;;;;;13.43;12.10;;;21.50;99.90;;;;;;5067201;28;20442;-52
2022/07/01 10:54:38;;;;;;;13.47;12.37;;;21.80;99.90;;;;;;5067894;28;20407;-54
2022/07/01 10:57:19;;;;;;;14.80;13.40;;;22.20;99.90;;;;;;5066128;28;20796;-55
2022/07/01 11:00:15;;;;;;;14.23;13.13;;;22.20;99.90;;;;;;5068908;28;20574;-48
2022/07/01 11:02:41;;;;;;;14.97;13.70;;;22.10;99.90;;;;;;5067238;28;20442;-53
2022/07/01 11:05:14;;;;;;;15.20;14.00;;;22.00;99.90;;;;;;5068538;28;20517;-52
2022/07/01 11:07:45;;;;;;;15.50;14.20;;;22.00;99.90;;;;;;5065673;28;20218;-55
2022/07/01 11:10:14;;;;;;;14.93;13.73;;;21.90;99.90;;;;;;5068043;28;20437;-55
2022/07/01 11:12:40;;;;;;;14.90;13.50;;;21.80;99.90;;;;;;5065584;28;20465;-54
2022/07/01 11:15:07;;;;;;;14.87;13.57;;;21.50;99.90;;;;;;5065963;28;20422;-52
2022/07/01 11:17:34;;;;;;;15.20;13.87;;;21.40;99.90;;;;;;5067076;28;20474;-50
2022/07/01 11:20:03;;;;;;;15.90;14.60;;;21.20;99.90;;;;;;5068554;28;21233;-54
2022/07/01 11:22:34;;;;;;;15.50;14.27;;;21.20;99.90;;;;;;5060220;28;20429;-49
2022/07/01 11:25:03;;;;;;;14.63;13.43;;;21.10;99.90;;;;;;5069086;28;20428;-53
2022/07/01 11:27:30;;;;;;;15.53;14.30;;;21.10;99.90;;;;;;5060784;28;20488;-54
2022/07/01 11:29:59;;;;;;;15.17;13.97;;;21.10;99.90;;;;;;5049306;28;20590;-51
2022/07/01 11:32:25;;;;;;;15.43;14.17;;;21.00;99.90;;;;;;5082108;28;20924;-54
2022/07/01 11:34:52;;;;;;;16.23;14.63;;;20.90;99.90;;;;;;5067385;28;20446;-55
2022/07/01 11:40:05;;;;;;;17.67;16.30;;;20.80;99.90;;;;;;5067216;28;20461;-54
2022/07/01 11:42:30;;;;;;;17.00;15.57;;;20.30;99.90;;;;;;5080429;28;20428;-54
2022/07/01 11:44:56;;;;;;;17.70;16.30;;;19.90;99.90;;;;;;5067882;28;20427;-56
2022/07/01 11:47:26;;;;;;;17.37;15.97;;;19.60;99.90;;;;;;5067161;28;20324;-52
2022/07/01 11:49:52;;;;;;;18.37;16.87;;;19.30;99.90;;;;;;5066865;28;20201;-50
2022/07/01 11:52:20;;;;;;;18.87;17.37;;;19.20;99.90;;;;;;5067700;28;20431;-51
2022/07/01 11:54:48;;;;;;;18.37;16.87;;;18.90;99.90;;;;;;5046631;28;20825;-55
2022/07/01 11:57:22;;;;;;;17.50;16.10;;;18.80;99.90;;;;;;5066979;28;20478;-53
2022/07/01 11:59:49;;;;;;;17.43;16.03;;;18.70;99.90;;;;;;5064143;28;20548;-54
2022/07/01 12:02:17;;;;;;;17.90;16.40;;;18.70;99.90;;;;;;5064785;28;20456;-51
2022/07/01 12:04:43;;;;;;;18.33;16.60;;;18.70;99.90;;;;;;5067072;28;20446;-49
2022/07/01 12:07:10;;;;;;;15.53;14.33;;;18.70;99.90;;;;;;5067200;28;20451;-58
2022/07/01 12:09:36;;;;;;;15.90;14.60;;;18.50;99.90;;;;;;5059327;28;20488;-54
2022/07/01 12:12:03;;;;;;;15.33;14.03;;;18.40;99.90;;;;;;5068249;28;20499;-56
2022/07/01 12:14:33;;;;;;;13.10;12.10;;;18.30;99.90;;;;;;5066370;28;20553;-57
2022/07/01 12:17:05;;;;;;;13.17;12.07;;;18.20;99.90;;;;;;5067665;28;20427;-56
2022/07/01 12:19:46;;;;;;;11.07;10.03;;;18.10;99.90;;;;;;5066699;28;20443;-56
2022/07/01 12:22:18;;;;;;;11.70;10.70;;;18.00;99.90;;;;;;5067938;28;20423;-55
2022/07/01 12:24:43;;;;;;;12.03;11.00;;;18.10;99.90;;;;;;5067081;28;20427;-56
2022/07/01 12:27:10;;;;;;;12.17;11.07;;;18.10;99.90;;;;;;5071462;28;20747;-55
2022/07/01 12:29:48;;;;;;;12.33;11.20;;;18.10;99.90;;;;;;5070997;28;20619;-55
2022/07/01 12:32:23;;;;;;;11.97;10.77;;;18.20;99.90;;;;;;5071761;28;20469;-54
2022/07/01 12:34:52;;;;;;;13.20;11.83;;;18.30;99.90;;;;;;5071115;28;20901;-55
2022/07/01 12:37:19;;;;;;;12.33;11.27;;;18.40;99.90;;;;;;5071670;28;20428;-52
2022/07/01 12:39:46;;;;;;;12.50;11.40;;;18.40;99.90;;;;;;5071173;28;20824;-53